Winnipeg James Armstrong Richardson International Airport
CYWG : now visible

Airfield :











YOU CAN JOIN US ON...

 
LOGIN :

Register | Disclaimer

   EN    FR    IT 

 









Legend :    VFR   Marginal VFR   IFR   Intensive IFR   Very Intensive IFR
Visi :
Ceiling :
>= 8 km
>= 3000ft
5 to 8 km
1000 to 3000 ft
1500m to 5 km
500 to 1000 ft
800 to 1500m
200 to 500 ft
< 800m
< 200 ft
Symbols :   Thunderstorms  Fog  Heavy snow  Heavy precipitations  Wind > 20 kt






- Airport Elevation : 783 ft
- IATA code : YWG


CYWG - Winnipeg James Armstrong Richardson International

CURRENT METAR :
  • 271700Z 18003KT 15SM SCT220 M23/M27 A3061 RMK CI3 SLP400

EXPIRED METARs :
  • 271600Z 17004KT 15SM FEW220 M26/M29 A3060 RMK CI1 CI TR SLP397
  • 271500Z 16003KT 15SM SKC M29/M32 A3058 RMK SLP394

TAF TAF CYWG
Valid from the 27 at 12:00 until the 28 at 12:00 UTC


271138Z 2712/2812 VRB03KT P6SM SKC
BECMG 2714/2716 15006KT
BECMG 2719/2721 11006KT
FM280600 10008KT P6SM SCT030
TEMPO 2806/2812 BKN030 RMK NXT FCST BY 271800Z
CZWG FIR / North America



MET'MAP, your aeronautical weather chart ! - Copyright ORBIFLY December 2007 - Disclaimer

ORBIFLY MET'MAP TEAM :

Programming & Development : Alexandra Zaïnal
Concept & original design : Baudouin d'Aumeries
Assistance for programming : Marc-Olivier Méhu
Technical & hardware support : Manuel Goepfert

Contact : metmap@orbifly.com




SOURCES & CREDITS :

   NOAA       Earth
Advisory